createdAt,value
2018-04-11T00:01:55.760Z,71.60
2018-04-11T00:04:24.958Z,72.00
2018-04-11T00:06:54.150Z,70.80
2018-04-11T00:09:23.357Z,71.80
2018-04-11T00:11:52.561Z,72.70
2018-04-11T00:14:21.770Z,73.30
2018-04-11T00:16:50.197Z,73.20
2018-04-11T00:19:18.619Z,72.70
2018-04-11T00:21:47.060Z,70.50
2018-04-11T00:24:15.480Z,69.80
2018-04-11T00:26:44.695Z,72.90
2018-04-11T00:29:13.113Z,72.80
2018-04-11T00:31:41.525Z,72.20
2018-04-11T00:34:10.537Z,69.90
2018-04-11T00:36:38.977Z,69.90
2018-04-11T00:39:07.403Z,71.60
2018-04-11T00:41:35.810Z,72.60
2018-04-11T00:44:04.302Z,73.30
2018-04-11T00:46:32.722Z,73.10
2018-04-11T00:49:01.143Z,72.60
2018-04-11T00:51:29.577Z,72.40
2018-04-11T00:53:57.684Z,72.90
2018-04-11T00:56:26.116Z,73.50
2018-04-11T00:58:55.301Z,74.50
2018-04-11T01:01:24.497Z,74.60
2018-04-11T01:03:53.706Z,74.70
2018-04-11T01:06:21.813Z,74.70
2018-04-11T01:08:50.219Z,74.70
2018-04-11T01:11:18.640Z,74.30
2018-04-11T01:13:47.072Z,73.60
2018-04-11T01:16:15.501Z,71.00
2018-04-11T01:18:43.963Z,70.10
2018-04-11T01:21:13.165Z,71.60
2018-04-11T01:23:42.941Z,72.00
2018-04-11T01:26:11.357Z,72.00
2018-04-11T01:28:39.960Z,72.70
2018-04-11T01:31:08.391Z,73.20
2018-04-11T01:33:36.815Z,73.70
2018-04-11T01:36:04.907Z,74.70
2018-04-11T01:38:33.376Z,74.30
2018-04-11T01:41:01.815Z,74.70
2018-04-11T01:43:31.000Z,74.70
2018-04-11T01:46:00.205Z,74.10
2018-04-11T01:48:29.498Z,73.80
2018-04-11T01:50:58.691Z,73.20
2018-04-11T01:53:27.878Z,73.30
2018-04-11T01:55:56.309Z,73.20
2018-04-11T01:58:24.739Z,73.60
2018-04-11T02:00:53.159Z,73.40
2018-04-11T02:03:21.619Z,72.80
2018-04-11T02:05:50.803Z,73.10
2018-04-11T02:08:20.012Z,73.40
2018-04-11T02:10:48.976Z,74.20
2018-04-11T02:13:17.402Z,74.20
2018-04-11T02:15:45.610Z,73.80
2018-04-11T02:18:13.819Z,74.30
2018-04-11T02:20:43.010Z,74.60
2018-04-11T02:23:12.283Z,74.80
2018-04-11T02:25:40.386Z,74.70
2018-04-11T02:28:09.623Z,75.20
2018-04-11T02:30:38.057Z,75.30
2018-04-11T02:33:07.260Z,74.70
2018-04-11T02:35:36.437Z,74.00
2018-04-11T02:38:04.868Z,73.90
2018-04-11T02:40:33.288Z,74.90
2018-04-11T02:43:01.749Z,74.20
2018-04-11T02:45:30.510Z,72.70
2018-04-11T02:47:58.953Z,73.10
2018-04-11T02:50:28.147Z,72.30
2018-04-11T02:52:57.344Z,72.90
2018-04-11T02:55:26.541Z,72.60
2018-04-11T02:57:55.816Z,73.00
2018-04-11T03:00:24.228Z,72.90
2018-04-11T03:02:53.229Z,72.30
2018-04-11T03:05:21.649Z,72.30
2018-04-11T03:07:50.163Z,71.90
2018-04-11T03:10:19.350Z,73.10
2018-04-11T03:12:47.773Z,73.00
2018-04-11T03:15:16.212Z,72.30
2018-04-11T03:17:44.666Z,72.30
2018-04-11T03:20:13.121Z,71.40
2018-04-11T03:22:41.581Z,72.20
2018-04-11T03:25:10.005Z,72.40
2018-04-11T03:27:38.441Z,72.90
2018-04-11T03:30:06.917Z,73.30
2018-04-11T03:32:35.346Z,74.80
2018-04-11T03:35:03.544Z,75.60
2018-04-11T03:37:32.752Z,76.10
2018-04-11T03:40:02.933Z,76.70
2018-04-11T03:42:31.977Z,76.60
2018-04-11T03:45:00.402Z,75.10
2018-04-11T03:47:28.845Z,73.80
2018-04-11T03:49:57.274Z,73.30
2018-04-11T03:52:25.717Z,73.50
2018-04-11T03:54:54.152Z,73.80
2018-04-11T03:57:22.756Z,76.60
2018-04-11T03:59:51.183Z,76.50
2018-04-11T04:02:19.601Z,76.80
2018-04-11T04:04:48.818Z,75.90
2018-04-11T04:07:17.238Z,75.80
2018-04-11T04:09:45.667Z,75.70
2018-04-11T04:12:14.119Z,75.80
2018-04-11T04:14:54.578Z,74.80
2018-04-11T04:17:35.073Z,75.80
2018-04-11T04:20:28.599Z,75.80
2018-04-11T04:22:57.039Z,74.30
2018-04-11T04:25:25.221Z,72.90
2018-04-11T04:27:53.671Z,73.60
2018-04-11T04:30:22.091Z,73.70
2018-04-11T04:32:50.289Z,75.00
2018-04-11T04:35:19.484Z,76.70
2018-04-11T04:37:48.676Z,76.90
2018-04-11T04:40:17.883Z,77.60
2018-04-11T04:42:47.077Z,78.10
2018-04-11T04:45:16.298Z,78.00
2018-04-11T04:47:44.713Z,78.10
2018-04-11T04:50:13.135Z,77.40
2018-04-11T04:52:42.349Z,74.80
2018-04-11T04:55:10.784Z,74.70
2018-04-11T04:57:39.209Z,74.20
2018-04-11T05:00:07.658Z,73.40
2018-04-11T05:02:36.666Z,73.40
2018-04-11T05:05:05.625Z,73.30
2018-04-11T05:07:34.059Z,73.30
2018-04-11T05:10:03.361Z,73.60
2018-04-11T05:12:32.108Z,73.70
2018-04-11T05:15:01.227Z,74.70
2018-04-11T05:17:29.905Z,73.90
2018-04-11T05:19:58.337Z,73.10
2018-04-11T05:22:26.766Z,73.10
2018-04-11T05:24:54.999Z,73.20
2018-04-11T05:27:23.448Z,72.80
2018-04-11T05:29:51.870Z,72.90
2018-04-11T05:32:20.850Z,73.50
2018-04-11T05:34:49.304Z,73.50
2018-04-11T05:37:17.729Z,73.80
2018-04-11T05:39:46.921Z,74.30
2018-04-11T05:42:16.120Z,74.80
2018-04-11T05:44:45.315Z,75.20
2018-04-11T05:47:14.506Z,76.20
2018-04-11T05:49:43.695Z,76.90
2018-04-11T05:52:12.132Z,76.90
2018-04-11T05:54:40.561Z,77.40
2018-04-11T05:57:09.776Z,77.80
2018-04-11T05:59:38.188Z,77.70
2018-04-11T06:02:06.609Z,77.90
2018-04-11T06:04:35.825Z,78.10
2018-04-11T06:07:06.013Z,78.20
2018-04-11T06:09:34.461Z,78.20
2018-04-11T06:12:03.724Z,78.30
2018-04-11T06:14:32.750Z,78.10
2018-04-11T06:17:01.224Z,76.60
2018-04-11T06:19:29.840Z,75.40
2018-04-11T06:21:58.278Z,75.40
2018-04-11T06:24:26.700Z,75.40
2018-04-11T06:26:55.127Z,75.80
2018-04-11T06:29:23.553Z,75.10
2018-04-11T06:31:51.979Z,75.50
2018-04-11T06:34:20.404Z,74.90
2018-04-11T06:36:48.865Z,75.00
2018-04-11T06:39:17.301Z,74.90
2018-04-11T06:41:46.488Z,75.60
2018-04-11T06:44:15.073Z,75.50
2018-04-11T06:46:44.280Z,75.60
2018-04-11T06:49:13.473Z,75.80
2018-04-11T06:51:42.769Z,75.90
2018-04-11T06:54:11.992Z,76.30
2018-04-11T06:56:40.415Z,76.30
2018-04-11T06:59:08.854Z,74.20
2018-04-11T07:01:37.297Z,74.00
2018-04-11T07:04:06.489Z,72.70
2018-04-11T07:06:35.693Z,73.30
2018-04-11T07:09:04.216Z,73.40
2018-04-11T07:11:32.679Z,73.40
2018-04-11T07:14:01.191Z,72.80
2018-04-11T07:16:29.612Z,73.30
2018-04-11T07:18:58.818Z,73.50
2018-04-11T07:21:28.004Z,72.40
2018-04-11T07:23:57.213Z,72.50
2018-04-11T07:26:25.638Z,72.50
2018-04-11T07:28:54.090Z,72.40
2018-04-11T07:31:22.185Z,71.50
2018-04-11T07:33:50.614Z,71.40
2018-04-11T07:36:20.025Z,71.50
2018-04-11T07:38:48.457Z,71.40
2018-04-11T07:41:16.884Z,71.70
2018-04-11T07:43:45.329Z,71.20
2018-04-11T07:46:13.788Z,70.90
2018-04-11T07:48:42.274Z,71.60
2018-04-11T07:51:10.715Z,70.30
2018-04-11T07:53:40.083Z,70.30
2018-04-11T07:56:09.275Z,70.40
2018-04-11T07:58:38.503Z,70.00
2018-04-11T08:01:06.598Z,70.10
2018-04-11T08:03:35.786Z,70.10
2018-04-11T08:06:04.135Z,70.10
2018-04-11T08:08:32.552Z,70.20
2018-04-11T08:11:01.014Z,70.60
2018-04-11T08:13:30.235Z,70.20
2018-04-11T08:15:58.664Z,69.90
2018-04-11T08:18:27.101Z,70.10
2018-04-11T08:20:55.309Z,70.60
2018-04-11T08:23:28.780Z,70.30
2018-04-11T08:25:56.989Z,70.20
2018-04-11T08:28:25.408Z,70.60
2018-04-11T08:30:53.847Z,70.50
2018-04-11T08:33:22.277Z,70.10
2018-04-11T08:35:50.716Z,70.80
2018-04-11T20:40:51.297Z,56.50
2018-04-11T20:43:20.506Z,56.80
2018-04-11T20:45:48.941Z,56.80
2018-04-11T20:48:17.367Z,57.00
2018-04-11T20:50:45.783Z,56.80
2018-04-11T20:53:13.896Z,57.20
2018-04-11T20:55:43.084Z,57.30
2018-04-11T20:58:12.323Z,57.10
2018-04-11T21:00:40.425Z,57.10
2018-04-11T21:03:08.850Z,57.20
2018-04-11T21:05:37.297Z,57.00
2018-04-11T21:08:05.730Z,57.30
2018-04-11T21:10:34.174Z,56.90
2018-04-11T21:13:03.373Z,57.00
2018-04-11T21:15:32.565Z,56.60
2018-04-11T21:18:01.769Z,56.40
2018-04-11T21:20:30.969Z,56.40
2018-04-11T21:23:00.183Z,56.40
2018-04-11T21:25:28.616Z,56.40
2018-04-11T21:27:57.598Z,56.30
2018-04-11T21:30:26.081Z,56.00
2018-04-11T21:32:54.514Z,56.10
2018-04-11T21:35:22.952Z,56.30
2018-04-11T21:37:51.372Z,56.30
2018-04-11T21:40:19.826Z,57.00
2018-04-11T21:42:49.031Z,56.80
2018-04-11T21:45:17.479Z,56.70
2018-04-11T21:47:45.899Z,56.10
2018-04-11T21:50:14.321Z,56.50
2018-04-11T21:52:42.772Z,56.90
2018-04-11T21:55:11.212Z,57.00
2018-04-11T21:57:40.413Z,56.80
2018-04-11T22:00:12.312Z,56.90
2018-04-11T22:02:40.773Z,56.80
2018-04-11T22:05:09.204Z,57.00
2018-04-11T22:07:37.650Z,57.20
2018-04-11T22:10:06.098Z,57.30
2018-04-11T22:12:34.557Z,57.60
2018-04-11T22:15:03.431Z,57.90
2018-04-11T22:17:31.861Z,57.90
2018-04-11T22:20:00.320Z,58.00
2018-04-11T22:22:29.544Z,57.90
2018-04-11T22:24:57.987Z,57.90
2018-04-11T22:27:26.978Z,58.00
2018-04-11T22:29:56.463Z,58.00
2018-04-11T22:32:24.902Z,58.00
2018-04-11T22:34:53.342Z,58.20
2018-04-11T22:37:22.555Z,58.60
2018-04-11T22:39:51.010Z,58.50
2018-04-11T22:42:20.248Z,58.30
2018-04-11T22:44:49.623Z,58.40
2018-04-11T22:47:18.845Z,58.70
2018-04-11T22:49:47.284Z,58.70
2018-04-11T22:52:16.481Z,58.60
2018-04-11T22:54:45.692Z,58.60
2018-04-11T22:57:14.881Z,58.40
2018-04-11T22:59:43.864Z,58.30
2018-04-11T23:02:13.075Z,58.50
2018-04-11T23:04:42.044Z,58.60
2018-04-11T23:07:10.228Z,58.60
2018-04-11T23:09:39.226Z,58.60
2018-04-11T23:12:08.932Z,58.40
2018-04-11T23:14:37.901Z,58.50
2018-04-11T23:17:06.626Z,58.50
2018-04-11T23:19:34.825Z,58.60
2018-04-11T23:22:03.270Z,58.70
2018-04-11T23:24:32.456Z,58.60
2018-04-11T23:27:01.679Z,58.70
2018-04-11T23:29:30.115Z,58.80
2018-04-11T23:31:58.547Z,58.70
2018-04-11T23:34:26.980Z,58.90
2018-04-11T23:36:55.404Z,58.90
2018-04-11T23:39:23.851Z,59.60
2018-04-11T23:41:53.068Z,59.00
2018-04-11T23:44:21.683Z,59.00
2018-04-11T23:46:50.098Z,59.10
2018-04-11T23:49:18.527Z,58.90
2018-04-11T23:51:46.969Z,59.50
2018-04-11T23:54:16.170Z,58.60
2018-04-11T23:56:45.380Z,58.80
2018-04-11T23:59:13.809Z,58.70
